sensor_id;sensor_type;location;lat;lon;timestamp;temperature;humidity
16160;DHT22;8185;57.818;15.224;2022-08-11T00:00:34;15.30;99.90
16160;DHT22;8185;57.818;15.224;2022-08-11T00:03:07;15.20;99.90
16160;DHT22;8185;57.818;15.224;2022-08-11T00:05:44;15.20;99.90
16160;DHT22;8185;57.818;15.224;2022-08-11T00:08:20;15.20;99.90
16160;DHT22;8185;57.818;15.224;2022-08-11T00:10:52;15.20;99.90
16160;DHT22;8185;57.818;15.224;2022-08-11T00:13:22;15.10;99.90
16160;DHT22;8185;57.818;15.224;2022-08-11T00:15:58;15.10;99.90
16160;DHT22;8185;57.818;15.224;2022-08-11T00:18:25;15.10;99.90
16160;DHT22;8185;57.818;15.224;2022-08-11T00:20:57;15.10;99.90
16160;DHT22;8185;57.818;15.224;2022-08-11T00:23:27;15.10;99.90
16160;DHT22;8185;57.818;15.224;2022-08-11T00:25:54;15.00;99.90
16160;DHT22;8185;57.818;15.224;2022-08-11T00:28:26;15.10;99.90
16160;DHT22;8185;57.818;15.224;2022-08-11T00:30:54;15.00;99.90
16160;DHT22;8185;57.818;15.224;2022-08-11T00:33:35;15.00;99.90
16160;DHT22;8185;57.818;15.224;2022-08-11T00:36:05;15.00;99.90
16160;DHT22;8185;57.818;15.224;2022-08-11T00:38:36;15.00;99.90
16160;DHT22;8185;57.818;15.224;2022-08-11T00:41:15;14.90;99.90
16160;DHT22;8185;57.818;15.224;2022-08-11T00:44:12;15.00;99.90
16160;DHT22;8185;57.818;15.224;2022-08-11T00:46:50;14.90;99.90
16160;DHT22;8185;57.818;15.224;2022-08-11T00:49:29;14.90;99.90
16160;DHT22;8185;57.818;15.224;2022-08-11T00:52:11;14.90;99.90
16160;DHT22;8185;57.818;15.224;2022-08-11T01:01:07;14.90;99.90
16160;DHT22;8185;57.818;15.224;2022-08-11T01:04:01;15.00;99.90
16160;DHT22;8185;57.818;15.224;2022-08-11T01:09:53;15.00;99.90
16160;DHT22;8185;57.818;15.224;2022-08-11T01:12:42;15.00;99.90
16160;DHT22;8185;57.818;15.224;2022-08-11T01:21:45;14.90;99.90
16160;DHT22;8185;57.818;15.224;2022-08-11T01:24:46;14.90;99.90
16160;DHT22;8185;57.818;15.224;2022-08-11T01:31:17;15.00;99.90
16160;DHT22;8185;57.818;15.224;2022-08-11T01:40:49;15.10;99.90
16160;DHT22;8185;57.818;15.224;2022-08-11T01:43:45;15.10;99.90
16160;DHT22;8185;57.818;15.224;2022-08-11T01:46:44;15.10;99.90
16160;DHT22;8185;57.818;15.224;2022-08-11T01:49:20;15.00;99.90
16160;DHT22;8185;57.818;15.224;2022-08-11T01:52:05;15.10;99.90
16160;DHT22;8185;57.818;15.224;2022-08-11T01:54:43;15.00;99.90
16160;DHT22;8185;57.818;15.224;2022-08-11T01:57:25;15.00;99.90
16160;DHT22;8185;57.818;15.224;2022-08-11T02:00:05;15.00;99.90
16160;DHT22;8185;57.818;15.224;2022-08-11T02:02:45;15.00;99.90
16160;DHT22;8185;57.818;15.224;2022-08-11T02:05:39;15.00;99.90
16160;DHT22;8185;57.818;15.224;2022-08-11T02:08:24;14.90;99.90
16160;DHT22;8185;57.818;15.224;2022-08-11T02:11:06;14.80;99.90
16160;DHT22;8185;57.818;15.224;2022-08-11T02:14:09;14.80;99.90
16160;DHT22;8185;57.818;15.224;2022-08-11T02:16:57;14.80;99.90
16160;DHT22;8185;57.818;15.224;2022-08-11T02:19:37;14.70;99.90
16160;DHT22;8185;57.818;15.224;2022-08-11T02:22:31;14.70;99.90
16160;DHT22;8185;57.818;15.224;2022-08-11T02:25:26;14.60;99.90
16160;DHT22;8185;57.818;15.224;2022-08-11T02:28:03;14.60;99.90
16160;DHT22;8185;57.818;15.224;2022-08-11T02:30:38;14.60;99.90
16160;DHT22;8185;57.818;15.224;2022-08-11T02:33:15;14.60;99.90
16160;DHT22;8185;57.818;15.224;2022-08-11T02:35:57;14.60;99.90
16160;DHT22;8185;57.818;15.224;2022-08-11T02:38:31;14.60;99.90
16160;DHT22;8185;57.818;15.224;2022-08-11T02:41:07;14.60;99.90
16160;DHT22;8185;57.818;15.224;2022-08-11T02:44:13;14.60;99.90
16160;DHT22;8185;57.818;15.224;2022-08-11T02:46:54;14.60;99.90
16160;DHT22;8185;57.818;15.224;2022-08-11T02:49:35;14.50;99.90
16160;DHT22;8185;57.818;15.224;2022-08-11T02:52:34;14.40;99.90
16160;DHT22;8185;57.818;15.224;2022-08-11T02:55:26;14.20;99.90
16160;DHT22;8185;57.818;15.224;2022-08-11T02:58:02;14.10;99.90
16160;DHT22;8185;57.818;15.224;2022-08-11T03:00:45;14.10;99.90
16160;DHT22;8185;57.818;15.224;2022-08-11T03:03:20;14.10;99.90
16160;DHT22;8185;57.818;15.224;2022-08-11T03:06:06;14.10;99.90
16160;DHT22;8185;57.818;15.224;2022-08-11T03:08:43;14.10;99.90
16160;DHT22;8185;57.818;15.224;2022-08-11T03:11:29;14.10;99.90
16160;DHT22;8185;57.818;15.224;2022-08-11T03:14:19;14.10;99.90
16160;DHT22;8185;57.818;15.224;2022-08-11T03:17:19;14.10;99.90
16160;DHT22;8185;57.818;15.224;2022-08-11T03:19:56;14.20;99.90
16160;DHT22;8185;57.818;15.224;2022-08-11T03:22:32;14.20;99.90
16160;DHT22;8185;57.818;15.224;2022-08-11T03:25:08;14.20;99.90
16160;DHT22;8185;57.818;15.224;2022-08-11T03:27:45;14.20;99.90
16160;DHT22;8185;57.818;15.224;2022-08-11T03:30:17;14.20;99.90
16160;DHT22;8185;57.818;15.224;2022-08-11T03:33:02;14.10;99.90
16160;DHT22;8185;57.818;15.224;2022-08-11T03:36:07;14.10;99.90
16160;DHT22;8185;57.818;15.224;2022-08-11T03:38:45;14.10;99.90
16160;DHT22;8185;57.818;15.224;2022-08-11T03:41:22;14.10;99.90
16160;DHT22;8185;57.818;15.224;2022-08-11T03:44:32;14.00;99.90
16160;DHT22;8185;57.818;15.224;2022-08-11T03:47:24;14.10;99.90
16160;DHT22;8185;57.818;15.224;2022-08-11T03:50:09;14.10;99.90
16160;DHT22;8185;57.818;15.224;2022-08-11T03:52:52;14.20;99.90
16160;DHT22;8185;57.818;15.224;2022-08-11T03:55:32;14.20;99.90
16160;DHT22;8185;57.818;15.224;2022-08-11T04:01:49;14.20;99.90
16160;DHT22;8185;57.818;15.224;2022-08-11T04:04:57;14.10;99.90
16160;DHT22;8185;57.818;15.224;2022-08-11T04:07:56;14.10;99.90
16160;DHT22;8185;57.818;15.224;2022-08-11T04:10:59;14.10;99.90
16160;DHT22;8185;57.818;15.224;2022-08-11T04:29:30;14.60;99.90
16160;DHT22;8185;57.818;15.224;2022-08-11T04:32:19;14.60;99.90
16160;DHT22;8185;57.818;15.224;2022-08-11T04:35:09;14.70;99.90
16160;DHT22;8185;57.818;15.224;2022-08-11T04:40:49;14.80;99.90
16160;DHT22;8185;57.818;15.224;2022-08-11T04:44:01;14.90;99.90
16160;DHT22;8185;57.818;15.224;2022-08-11T04:49:57;15.10;99.90
16160;DHT22;8185;57.818;15.224;2022-08-11T04:56:15;15.20;99.90
16160;DHT22;8185;57.818;15.224;2022-08-11T04:59:31;15.30;99.90
16160;DHT22;8185;57.818;15.224;2022-08-11T05:02:49;15.40;99.90
16160;DHT22;8185;57.818;15.224;2022-08-11T05:05:27;15.50;99.90
16160;DHT22;8185;57.818;15.224;2022-08-11T05:11:27;15.50;99.90
16160;DHT22;8185;57.818;15.224;2022-08-11T05:14:28;15.60;99.90
16160;DHT22;8185;57.818;15.224;2022-08-11T05:17:21;15.70;99.90
16160;DHT22;8185;57.818;15.224;2022-08-11T05:20:09;15.80;99.90
16160;DHT22;8185;57.818;15.224;2022-08-11T05:22:59;15.80;99.90
16160;DHT22;8185;57.818;15.224;2022-08-11T05:25:46;15.90;99.90
16160;DHT22;8185;57.818;15.224;2022-08-11T05:28:35;15.90;99.90
16160;DHT22;8185;57.818;15.224;2022-08-11T05:31:25;16.00;99.90
16160;DHT22;8185;57.818;15.224;2022-08-11T05:34:21;16.10;99.90
16160;DHT22;8185;57.818;15.224;2022-08-11T05:37:08;16.20;99.90
16160;DHT22;8185;57.818;15.224;2022-08-11T05:39:45;16.40;99.90
16160;DHT22;8185;57.818;15.224;2022-08-11T05:42:32;16.50;99.90
16160;DHT22;8185;57.818;15.224;2022-08-11T05:45:20;16.50;99.90
16160;DHT22;8185;57.818;15.224;2022-08-11T05:48:05;16.60;99.90
16160;DHT22;8185;57.818;15.224;2022-08-11T05:50:52;16.70;99.90
16160;DHT22;8185;57.818;15.224;2022-08-11T05:53:49;16.80;99.90
16160;DHT22;8185;57.818;15.224;2022-08-11T05:56:42;17.00;99.90
16160;DHT22;8185;57.818;15.224;2022-08-11T05:59:13;17.00;99.90
16160;DHT22;8185;57.818;15.224;2022-08-11T06:01:45;17.10;99.90
16160;DHT22;8185;57.818;15.224;2022-08-11T06:04:17;17.20;99.90
16160;DHT22;8185;57.818;15.224;2022-08-11T06:06:49;17.30;99.90
16160;DHT22;8185;57.818;15.224;2022-08-11T06:09:23;17.40;99.90
16160;DHT22;8185;57.818;15.224;2022-08-11T06:11:51;17.50;99.90
16160;DHT22;8185;57.818;15.224;2022-08-11T06:14:19;17.60;99.90
16160;DHT22;8185;57.818;15.224;2022-08-11T06:16:53;17.60;99.90
16160;DHT22;8185;57.818;15.224;2022-08-11T06:19:23;17.70;99.90
16160;DHT22;8185;57.818;15.224;2022-08-11T06:21:57;17.80;99.90
16160;DHT22;8185;57.818;15.224;2022-08-11T06:24:25;17.90;99.90
16160;DHT22;8185;57.818;15.224;2022-08-11T06:26:54;17.90;99.90
16160;DHT22;8185;57.818;15.224;2022-08-11T06:29:23;18.00;99.90
16160;DHT22;8185;57.818;15.224;2022-08-11T06:31:56;18.10;99.90
16160;DHT22;8185;57.818;15.224;2022-08-11T06:34:34;18.20;99.90
16160;DHT22;8185;57.818;15.224;2022-08-11T06:37:20;18.40;99.90
16160;DHT22;8185;57.818;15.224;2022-08-11T06:39:56;18.50;99.90
16160;DHT22;8185;57.818;15.224;2022-08-11T06:42:37;18.60;99.90
16160;DHT22;8185;57.818;15.224;2022-08-11T06:45:23;18.70;99.90
16160;DHT22;8185;57.818;15.224;2022-08-11T06:47:55;18.70;99.90
16160;DHT22;8185;57.818;15.224;2022-08-11T06:50:27;18.80;99.90
16160;DHT22;8185;57.818;15.224;2022-08-11T06:53:17;18.90;99.90
16160;DHT22;8185;57.818;15.224;2022-08-11T06:55:45;19.00;99.90
16160;DHT22;8185;57.818;15.224;2022-08-11T06:58:33;19.10;99.90
16160;DHT22;8185;57.818;15.224;2022-08-11T07:01:26;19.10;99.90
16160;DHT22;8185;57.818;15.224;2022-08-11T07:04:05;19.20;99.90
16160;DHT22;8185;57.818;15.224;2022-08-11T07:06:44;19.40;99.90
16160;DHT22;8185;57.818;15.224;2022-08-11T07:12:53;19.50;99.90
16160;DHT22;8185;57.818;15.224;2022-08-11T07:15:40;19.70;99.90
16160;DHT22;8185;57.818;15.224;2022-08-11T07:18:11;19.70;99.90
16160;DHT22;8185;57.818;15.224;2022-08-11T07:21:11;19.80;99.90
16160;DHT22;8185;57.818;15.224;2022-08-11T07:23:58;19.90;99.90
16160;DHT22;8185;57.818;15.224;2022-08-11T07:26:49;19.90;99.90
16160;DHT22;8185;57.818;15.224;2022-08-11T07:29:35;20.00;99.90
16160;DHT22;8185;57.818;15.224;2022-08-11T07:32:13;20.30;99.90
16160;DHT22;8185;57.818;15.224;2022-08-11T07:34:47;20.40;99.90
16160;DHT22;8185;57.818;15.224;2022-08-11T07:37:17;20.40;99.90
16160;DHT22;8185;57.818;15.224;2022-08-11T07:39:47;20.50;99.90
16160;DHT22;8185;57.818;15.224;2022-08-11T07:42:19;20.60;99.90
16160;DHT22;8185;57.818;15.224;2022-08-11T07:44:47;20.60;99.90
16160;DHT22;8185;57.818;15.224;2022-08-11T07:47:34;20.80;99.90
16160;DHT22;8185;57.818;15.224;2022-08-11T07:50:19;20.80;99.90
16160;DHT22;8185;57.818;15.224;2022-08-11T07:53:06;20.90;99.90
16160;DHT22;8185;57.818;15.224;2022-08-11T07:55:34;20.90;99.90
16160;DHT22;8185;57.818;15.224;2022-08-11T07:58:03;20.90;99.90
16160;DHT22;8185;57.818;15.224;2022-08-11T08:00:51;21.00;99.90
16160;DHT22;8185;57.818;15.224;2022-08-11T08:03:38;21.20;99.90
16160;DHT22;8185;57.818;15.224;2022-08-11T08:06:25;21.30;99.90
16160;DHT22;8185;57.818;15.224;2022-08-11T08:09:13;21.30;99.90
16160;DHT22;8185;57.818;15.224;2022-08-11T08:12:02;21.40;99.90
16160;DHT22;8185;57.818;15.224;2022-08-11T08:14:48;21.30;99.90
16160;DHT22;8185;57.818;15.224;2022-08-11T08:17:33;21.30;99.90
16160;DHT22;8185;57.818;15.224;2022-08-11T08:20:25;21.40;99.90
16160;DHT22;8185;57.818;15.224;2022-08-11T08:22:55;21.30;99.90
16160;DHT22;8185;57.818;15.224;2022-08-11T08:25:26;21.20;99.90
16160;DHT22;8185;57.818;15.224;2022-08-11T08:27:55;21.30;99.90
16160;DHT22;8185;57.818;15.224;2022-08-11T08:30:24;21.40;99.90
16160;DHT22;8185;57.818;15.224;2022-08-11T08:33:11;21.50;99.90
16160;DHT22;8185;57.818;15.224;2022-08-11T08:35:41;21.70;99.90
16160;DHT22;8185;57.818;15.224;2022-08-11T08:38:10;21.90;99.90
16160;DHT22;8185;57.818;15.224;2022-08-11T08:40:41;22.00;99.90
16160;DHT22;8185;57.818;15.224;2022-08-11T08:43:12;21.90;99.90
16160;DHT22;8185;57.818;15.224;2022-08-11T08:45:42;21.90;99.90
16160;DHT22;8185;57.818;15.224;2022-08-11T08:48:13;21.90;99.90
16160;DHT22;8185;57.818;15.224;2022-08-11T08:50:49;22.00;99.90
16160;DHT22;8185;57.818;15.224;2022-08-11T08:53:39;22.10;99.90
16160;DHT22;8185;57.818;15.224;2022-08-11T08:56:09;22.30;99.90
16160;DHT22;8185;57.818;15.224;2022-08-11T08:58:38;22.50;99.90
16160;DHT22;8185;57.818;15.224;2022-08-11T09:01:09;22.50;99.90
16160;DHT22;8185;57.818;15.224;2022-08-11T09:03:37;22.60;99.90
16160;DHT22;8185;57.818;15.224;2022-08-11T09:06:06;22.80;99.90
16160;DHT22;8185;57.818;15.224;2022-08-11T09:08:34;22.90;99.90
16160;DHT22;8185;57.818;15.224;2022-08-11T09:11:03;23.00;99.90
16160;DHT22;8185;57.818;15.224;2022-08-11T09:13:51;23.00;99.90
16160;DHT22;8185;57.818;15.224;2022-08-11T09:16:19;23.00;99.90
16160;DHT22;8185;57.818;15.224;2022-08-11T09:18:48;22.80;99.90
16160;DHT22;8185;57.818;15.224;2022-08-11T09:21:16;22.90;99.90
16160;DHT22;8185;57.818;15.224;2022-08-11T09:23:48;22.90;99.90
16160;DHT22;8185;57.818;15.224;2022-08-11T09:26:34;22.80;99.90
16160;DHT22;8185;57.818;15.224;2022-08-11T09:29:28;22.90;99.90
16160;DHT22;8185;57.818;15.224;2022-08-11T09:31:57;22.90;99.90
16160;DHT22;8185;57.818;15.224;2022-08-11T09:34:26;22.90;99.90
16160;DHT22;8185;57.818;15.224;2022-08-11T09:36:54;23.10;99.90
16160;DHT22;8185;57.818;15.224;2022-08-11T09:39:37;23.10;99.90
16160;DHT22;8185;57.818;15.224;2022-08-11T09:42:23;23.20;99.90
16160;DHT22;8185;57.818;15.224;2022-08-11T09:45:15;23.30;99.90
16160;DHT22;8185;57.818;15.224;2022-08-11T09:47:42;23.40;99.90
16160;DHT22;8185;57.818;15.224;2022-08-11T09:50:10;23.40;99.90
16160;DHT22;8185;57.818;15.224;2022-08-11T09:52:41;23.80;99.90
16160;DHT22;8185;57.818;15.224;2022-08-11T09:55:13;23.90;99.90
16160;DHT22;8185;57.818;15.224;2022-08-11T09:57:44;24.20;99.90
16160;DHT22;8185;57.818;15.224;2022-08-11T10:00:32;23.90;99.90
16160;DHT22;8185;57.818;15.224;2022-08-11T10:03:03;24.00;99.90
16160;DHT22;8185;57.818;15.224;2022-08-11T10:05:33;24.40;99.90
16160;DHT22;8185;57.818;15.224;2022-08-11T10:08:19;24.40;99.90
16160;DHT22;8185;57.818;15.224;2022-08-11T10:10:48;24.50;99.90
16160;DHT22;8185;57.818;15.224;2022-08-11T10:13:17;24.40;99.90
16160;DHT22;8185;57.818;15.224;2022-08-11T10:15:53;24.60;99.90
16160;DHT22;8185;57.818;15.224;2022-08-11T10:18:28;24.30;99.90
16160;DHT22;8185;57.818;15.224;2022-08-11T10:21:10;24.40;99.90
16160;DHT22;8185;57.818;15.224;2022-08-11T10:23:39;24.40;99.90
16160;DHT22;8185;57.818;15.224;2022-08-11T10:26:27;24.60;99.90
16160;DHT22;8185;57.818;15.224;2022-08-11T10:29:13;24.70;99.90
16160;DHT22;8185;57.818;15.224;2022-08-11T10:32:00;24.80;99.30
16160;DHT22;8185;57.818;15.224;2022-08-11T10:34:47;24.80;98.50
16160;DHT22;8185;57.818;15.224;2022-08-11T10:37:16;24.80;98.00
16160;DHT22;8185;57.818;15.224;2022-08-11T10:39:45;24.80;98.00
16160;DHT22;8185;57.818;15.224;2022-08-11T10:42:14;25.10;98.40
16160;DHT22;8185;57.818;15.224;2022-08-11T10:44:59;25.50;98.50
16160;DHT22;8185;57.818;15.224;2022-08-11T10:47:29;26.40;97.00
16160;DHT22;8185;57.818;15.224;2022-08-11T10:50:02;26.50;95.50
16160;DHT22;8185;57.818;15.224;2022-08-11T10:52:49;26.40;95.60
16160;DHT22;8185;57.818;15.224;2022-08-11T10:55:34;26.20;94.80
16160;DHT22;8185;57.818;15.224;2022-08-11T10:58:21;26.40;95.50
16160;DHT22;8185;57.818;15.224;2022-08-11T11:01:06;26.20;92.60
16160;DHT22;8185;57.818;15.224;2022-08-11T11:03:35;26.30;93.90
16160;DHT22;8185;57.818;15.224;2022-08-11T11:06:08;26.30;93.90
16160;DHT22;8185;57.818;15.224;2022-08-11T11:08:41;26.40;93.70
16160;DHT22;8185;57.818;15.224;2022-08-11T11:11:22;26.70;93.70
16160;DHT22;8185;57.818;15.224;2022-08-11T11:14:11;27.10;93.30
16160;DHT22;8185;57.818;15.224;2022-08-11T11:16:59;27.10;92.80
16160;DHT22;8185;57.818;15.224;2022-08-11T11:19:46;27.30;93.00
16160;DHT22;8185;57.818;15.224;2022-08-11T11:22:15;27.30;92.40
16160;DHT22;8185;57.818;15.224;2022-08-11T11:25:09;27.50;91.50
16160;DHT22;8185;57.818;15.224;2022-08-11T11:27:56;28.10;91.80
16160;DHT22;8185;57.818;15.224;2022-08-11T11:30:36;27.90;89.90
16160;DHT22;8185;57.818;15.224;2022-08-11T11:33:10;27.70;90.60
16160;DHT22;8185;57.818;15.224;2022-08-11T11:35:51;27.60;90.40
16160;DHT22;8185;57.818;15.224;2022-08-11T11:38:20;27.80;90.40
16160;DHT22;8185;57.818;15.224;2022-08-11T11:40:48;27.30;91.00
16160;DHT22;8185;57.818;15.224;2022-08-11T11:43:36;27.10;91.30
16160;DHT22;8185;57.818;15.224;2022-08-11T11:46:13;27.30;90.80
16160;DHT22;8185;57.818;15.224;2022-08-11T11:48:42;27.80;89.80
16160;DHT22;8185;57.818;15.224;2022-08-11T11:51:09;27.60;91.00
16160;DHT22;8185;57.818;15.224;2022-08-11T11:53:41;27.20;91.40
16160;DHT22;8185;57.818;15.224;2022-08-11T11:56:11;27.30;91.00
16160;DHT22;8185;57.818;15.224;2022-08-11T11:58:39;27.30;90.90
16160;DHT22;8185;57.818;15.224;2022-08-11T12:01:26;27.60;90.40
16160;DHT22;8185;57.818;15.224;2022-08-11T12:03:55;27.40;90.50
16160;DHT22;8185;57.818;15.224;2022-08-11T12:06:23;27.50;90.10
16160;DHT22;8185;57.818;15.224;2022-08-11T12:08:54;27.10;90.80
16160;DHT22;8185;57.818;15.224;2022-08-11T12:11:23;26.80;91.10
16160;DHT22;8185;57.818;15.224;2022-08-11T12:14:09;26.70;90.80
16160;DHT22;8185;57.818;15.224;2022-08-11T12:16:42;26.70;91.40
16160;DHT22;8185;57.818;15.224;2022-08-11T12:19:13;26.70;90.80
16160;DHT22;8185;57.818;15.224;2022-08-11T12:21:41;27.00;90.80
16160;DHT22;8185;57.818;15.224;2022-08-11T12:24:24;27.00;90.40
16160;DHT22;8185;57.818;15.224;2022-08-11T12:27:10;26.80;90.80
16160;DHT22;8185;57.818;15.224;2022-08-11T12:29:48;27.00;91.60
16160;DHT22;8185;57.818;15.224;2022-08-11T12:32:19;26.90;91.20
16160;DHT22;8185;57.818;15.224;2022-08-11T12:34:47;26.90;90.60
16160;DHT22;8185;57.818;15.224;2022-08-11T12:37:18;26.80;91.00
16160;DHT22;8185;57.818;15.224;2022-08-11T12:39:50;26.60;90.60
16160;DHT22;8185;57.818;15.224;2022-08-11T12:42:37;26.10;91.60
16160;DHT22;8185;57.818;15.224;2022-08-11T12:45:25;25.80;92.80
16160;DHT22;8185;57.818;15.224;2022-08-11T12:48:06;25.70;92.10
16160;DHT22;8185;57.818;15.224;2022-08-11T12:50:55;25.90;91.90
16160;DHT22;8185;57.818;15.224;2022-08-11T12:53:50;25.80;92.50
16160;DHT22;8185;57.818;15.224;2022-08-11T12:56:20;25.70;92.10
16160;DHT22;8185;57.818;15.224;2022-08-11T12:59:07;25.60;93.00
16160;DHT22;8185;57.818;15.224;2022-08-11T13:01:52;25.70;93.20
16160;DHT22;8185;57.818;15.224;2022-08-11T13:04:39;26.10;92.50
16160;DHT22;8185;57.818;15.224;2022-08-11T13:07:26;26.30;92.10
16160;DHT22;8185;57.818;15.224;2022-08-11T13:09:55;26.20;92.00
16160;DHT22;8185;57.818;15.224;2022-08-11T13:12:23;26.20;91.80
16160;DHT22;8185;57.818;15.224;2022-08-11T13:15:10;26.20;91.80
16160;DHT22;8185;57.818;15.224;2022-08-11T13:17:39;26.50;91.30
16160;DHT22;8185;57.818;15.224;2022-08-11T13:20:11;26.60;91.50
16160;DHT22;8185;57.818;15.224;2022-08-11T13:22:41;26.60;91.80
16160;DHT22;8185;57.818;15.224;2022-08-11T13:25:11;27.50;90.00
16160;DHT22;8185;57.818;15.224;2022-08-11T13:27:41;28.00;90.20
16160;DHT22;8185;57.818;15.224;2022-08-11T13:30:11;28.60;88.90
16160;DHT22;8185;57.818;15.224;2022-08-11T13:32:57;28.80;87.00
16160;DHT22;8185;57.818;15.224;2022-08-11T13:35:28;28.80;86.90
16160;DHT22;8185;57.818;15.224;2022-08-11T13:37:57;29.50;85.50
16160;DHT22;8185;57.818;15.224;2022-08-11T13:40:25;30.10;82.00
16160;DHT22;8185;57.818;15.224;2022-08-11T13:42:54;30.00;82.80
16160;DHT22;8185;57.818;15.224;2022-08-11T13:45:23;31.20;80.50
16160;DHT22;8185;57.818;15.224;2022-08-11T13:47:54;30.60;78.90
16160;DHT22;8185;57.818;15.224;2022-08-11T13:50:23;30.20;78.70
16160;DHT22;8185;57.818;15.224;2022-08-11T13:53:14;30.60;78.80
16160;DHT22;8185;57.818;15.224;2022-08-11T13:55:43;30.60;79.40
16160;DHT22;8185;57.818;15.224;2022-08-11T13:58:12;30.70;79.60
16160;DHT22;8185;57.818;15.224;2022-08-11T14:00:41;30.50;78.60
16160;DHT22;8185;57.818;15.224;2022-08-11T14:03:11;31.10;78.70
16160;DHT22;8185;57.818;15.224;2022-08-11T14:05:41;31.00;76.50
16160;DHT22;8185;57.818;15.224;2022-08-11T14:08:15;31.70;77.50
16160;DHT22;8185;57.818;15.224;2022-08-11T14:10:44;31.90;75.50
16160;DHT22;8185;57.818;15.224;2022-08-11T14:13:50;31.60;75.00
16160;DHT22;8185;57.818;15.224;2022-08-11T14:16:21;32.20;75.40
16160;DHT22;8185;57.818;15.224;2022-08-11T14:18:53;32.00;74.00
16160;DHT22;8185;57.818;15.224;2022-08-11T14:21:24;31.80;75.20
16160;DHT22;8185;57.818;15.224;2022-08-11T14:24:11;31.90;76.20
16160;DHT22;8185;57.818;15.224;2022-08-11T14:26:39;31.60;76.30
16160;DHT22;8185;57.818;15.224;2022-08-11T14:29:11;31.60;76.30
16160;DHT22;8185;57.818;15.224;2022-08-11T14:31:43;31.80;76.30
16160;DHT22;8185;57.818;15.224;2022-08-11T14:34:12;32.10;74.10
16160;DHT22;8185;57.818;15.224;2022-08-11T14:36:43;31.70;74.50
16160;DHT22;8185;57.818;15.224;2022-08-11T14:39:14;32.00;73.30
16160;DHT22;8185;57.818;15.224;2022-08-11T14:41:45;31.70;75.10
16160;DHT22;8185;57.818;15.224;2022-08-11T14:44:31;32.40;75.30
16160;DHT22;8185;57.818;15.224;2022-08-11T14:47:17;32.40;72.90
16160;DHT22;8185;57.818;15.224;2022-08-11T14:49:46;32.80;70.50
16160;DHT22;8185;57.818;15.224;2022-08-11T14:52:15;33.00;71.70
16160;DHT22;8185;57.818;15.224;2022-08-11T14:54:46;31.90;73.80
16160;DHT22;8185;57.818;15.224;2022-08-11T14:57:35;32.20;72.00
16160;DHT22;8185;57.818;15.224;2022-08-11T15:00:05;31.90;72.20
16160;DHT22;8185;57.818;15.224;2022-08-11T15:02:33;31.50;72.90
16160;DHT22;8185;57.818;15.224;2022-08-11T15:05:20;30.90;74.40
16160;DHT22;8185;57.818;15.224;2022-08-11T15:07:48;31.10;73.30
16160;DHT22;8185;57.818;15.224;2022-08-11T15:10:18;31.70;73.40
16160;DHT22;8185;57.818;15.224;2022-08-11T15:12:47;32.50;72.70
16160;DHT22;8185;57.818;15.224;2022-08-11T15:15:16;31.80;73.30
16160;DHT22;8185;57.818;15.224;2022-08-11T15:18:04;32.20;72.80
16160;DHT22;8185;57.818;15.224;2022-08-11T15:20:32;33.20;70.40
16160;DHT22;8185;57.818;15.224;2022-08-11T15:23:16;32.90;71.30
16160;DHT22;8185;57.818;15.224;2022-08-11T15:26:05;33.10;69.50
16160;DHT22;8185;57.818;15.224;2022-08-11T15:28:38;33.10;70.00
16160;DHT22;8185;57.818;15.224;2022-08-11T15:31:25;32.20;71.70
16160;DHT22;8185;57.818;15.224;2022-08-11T15:34:14;31.60;73.60
16160;DHT22;8185;57.818;15.224;2022-08-11T15:37:06;31.70;75.10
16160;DHT22;8185;57.818;15.224;2022-08-11T15:39:54;31.90;73.40
16160;DHT22;8185;57.818;15.224;2022-08-11T15:42:48;33.20;71.80
16160;DHT22;8185;57.818;15.224;2022-08-11T15:45:37;33.90;66.60
16160;DHT22;8185;57.818;15.224;2022-08-11T15:48:28;33.90;66.40
16160;DHT22;8185;57.818;15.224;2022-08-11T15:51:01;33.20;67.30
16160;DHT22;8185;57.818;15.224;2022-08-11T15:53:33;33.20;69.10
16160;DHT22;8185;57.818;15.224;2022-08-11T15:56:04;33.80;70.00
16160;DHT22;8185;57.818;15.224;2022-08-11T15:58:41;33.30;69.60
16160;DHT22;8185;57.818;15.224;2022-08-11T16:01:28;33.10;71.90
16160;DHT22;8185;57.818;15.224;2022-08-11T16:04:16;33.00;70.20
16160;DHT22;8185;57.818;15.224;2022-08-11T16:06:49;34.10;69.30
16160;DHT22;8185;57.818;15.224;2022-08-11T16:09:20;33.80;69.20
16160;DHT22;8185;57.818;15.224;2022-08-11T16:11:50;32.90;68.70
16160;DHT22;8185;57.818;15.224;2022-08-11T16:14:22;32.50;70.50
16160;DHT22;8185;57.818;15.224;2022-08-11T16:17:10;32.20;70.10
16160;DHT22;8185;57.818;15.224;2022-08-11T16:19:39;32.30;70.80
16160;DHT22;8185;57.818;15.224;2022-08-11T16:22:10;33.10;70.70
16160;DHT22;8185;57.818;15.224;2022-08-11T16:24:41;33.30;68.40
16160;DHT22;8185;57.818;15.224;2022-08-11T16:27:12;33.30;68.20
16160;DHT22;8185;57.818;15.224;2022-08-11T16:29:45;33.60;67.10
16160;DHT22;8185;57.818;15.224;2022-08-11T16:32:16;33.90;69.30
16160;DHT22;8185;57.818;15.224;2022-08-11T16:34:51;34.90;68.20
16160;DHT22;8185;57.818;15.224;2022-08-11T16:37:37;34.60;67.50
16160;DHT22;8185;57.818;15.224;2022-08-11T16:40:22;33.40;67.10
16160;DHT22;8185;57.818;15.224;2022-08-11T16:42:51;33.90;67.30
16160;DHT22;8185;57.818;15.224;2022-08-11T16:45:40;34.20;65.50
16160;DHT22;8185;57.818;15.224;2022-08-11T16:48:30;33.90;66.50
16160;DHT22;8185;57.818;15.224;2022-08-11T16:50:58;33.60;68.40
16160;DHT22;8185;57.818;15.224;2022-08-11T16:53:27;33.30;66.80
16160;DHT22;8185;57.818;15.224;2022-08-11T16:55:56;32.70;68.00
16160;DHT22;8185;57.818;15.224;2022-08-11T16:58:26;33.00;68.00
16160;DHT22;8185;57.818;15.224;2022-08-11T17:01:13;33.10;68.10
16160;DHT22;8185;57.818;15.224;2022-08-11T17:03:45;32.60;69.20
16160;DHT22;8185;57.818;15.224;2022-08-11T17:06:32;32.60;69.30
16160;DHT22;8185;57.818;15.224;2022-08-11T17:09:20;32.70;70.80
16160;DHT22;8185;57.818;15.224;2022-08-11T17:12:07;31.50;70.90
16160;DHT22;8185;57.818;15.224;2022-08-11T17:14:59;31.40;72.20
16160;DHT22;8185;57.818;15.224;2022-08-11T17:17:32;31.40;72.30
16160;DHT22;8185;57.818;15.224;2022-08-11T17:20:05;31.30;73.00
16160;DHT22;8185;57.818;15.224;2022-08-11T17:22:35;31.20;73.00
16160;DHT22;8185;57.818;15.224;2022-08-11T17:25:24;31.70;71.90
16160;DHT22;8185;57.818;15.224;2022-08-11T17:27:53;32.20;70.80
16160;DHT22;8185;57.818;15.224;2022-08-11T17:30:23;32.40;70.00
16160;DHT22;8185;57.818;15.224;2022-08-11T17:33:14;31.90;71.00
16160;DHT22;8185;57.818;15.224;2022-08-11T17:35:59;31.50;71.90
16160;DHT22;8185;57.818;15.224;2022-08-11T17:38:27;31.70;70.90
16160;DHT22;8185;57.818;15.224;2022-08-11T17:40:58;31.30;71.10
16160;DHT22;8185;57.818;15.224;2022-08-11T17:43:44;31.00;72.40
16160;DHT22;8185;57.818;15.224;2022-08-11T17:46:30;31.40;72.70